createdAt,value
2022-08-26T00:00:21.195Z,99577.00
2022-08-26T00:02:49.320Z,99582.34
2022-08-26T00:05:17.671Z,99583.03
2022-08-26T00:07:46.083Z,99575.66
2022-08-26T00:10:14.220Z,99570.31
2022-08-26T00:12:42.661Z,99572.28
2022-08-26T00:15:14.307Z,99570.09
2022-08-26T00:17:43.919Z,99573.00
2022-08-26T00:20:14.439Z,99568.25
2022-08-26T00:22:43.567Z,99569.94
2022-08-26T00:25:13.494Z,99573.03
2022-08-26T00:27:44.099Z,99572.03
2022-08-26T00:30:15.207Z,99578.53
2022-08-26T00:32:46.339Z,99568.84
2022-08-26T00:35:15.310Z,99574.84
2022-08-26T00:37:44.074Z,99571.31
2022-08-26T00:40:16.200Z,99571.31
2022-08-26T00:42:46.121Z,99566.31
2022-08-26T00:45:15.409Z,99565.78
2022-08-26T00:47:49.991Z,99561.75
2022-08-26T00:50:23.263Z,99561.03
2022-08-26T00:52:53.582Z,99562.88
2022-08-26T00:55:27.489Z,99556.50
2022-08-26T00:58:07.201Z,99559.50
2022-08-26T01:00:35.755Z,99558.16
2022-08-26T01:03:05.528Z,99558.81
2022-08-26T01:05:36.035Z,99561.00
2022-08-26T01:08:04.917Z,99561.00
2022-08-26T01:10:33.089Z,99562.66
2022-08-26T01:13:06.345Z,99555.94
2022-08-26T01:15:38.166Z,99560.47
2022-08-26T01:18:08.844Z,99561.47
2022-08-26T01:20:47.372Z,99555.72
2022-08-26T01:23:17.166Z,99555.56
2022-08-26T01:25:49.842Z,99553.19
2022-08-26T01:28:22.936Z,99549.13
2022-08-26T01:30:54.279Z,99551.16
2022-08-26T01:33:28.185Z,99548.25
2022-08-26T01:35:56.697Z,99565.16
2022-08-26T01:38:27.875Z,99559.44
2022-08-26T01:41:01.270Z,99554.38
2022-08-26T01:43:31.782Z,99549.47
2022-08-26T01:46:00.562Z,99549.66
2022-08-26T01:48:32.899Z,99557.31
2022-08-26T01:51:02.057Z,99555.25
2022-08-26T01:53:32.303Z,99547.03
2022-08-26T01:56:03.135Z,99549.84
2022-08-26T01:58:36.541Z,99552.84
2022-08-26T02:01:06.368Z,99553.81
2022-08-26T02:03:35.166Z,99556.34
2022-08-26T02:06:10.251Z,99552.50
2022-08-26T02:08:43.356Z,99546.50
2022-08-26T02:11:11.995Z,99546.78
2022-08-26T02:13:43.071Z,99545.94
2022-08-26T02:16:12.229Z,99544.06
2022-08-26T02:18:43.891Z,99552.41
2022-08-26T02:21:15.169Z,99546.88
2022-08-26T02:23:45.559Z,99543.00
2022-08-26T02:26:18.066Z,99548.34
2022-08-26T02:28:52.586Z,99560.72
2022-08-26T02:31:20.766Z,99560.03
2022-08-26T02:33:48.941Z,99553.78
2022-08-26T02:36:21.579Z,99548.41
2022-08-26T02:38:52.045Z,99555.94
2022-08-26T02:41:20.455Z,99555.41
2022-08-26T02:43:51.262Z,99550.19
2022-08-26T02:46:21.472Z,99548.50
2022-08-26T02:48:56.485Z,99546.84
2022-08-26T02:51:24.584Z,99551.19
2022-08-26T02:53:54.163Z,99545.47
2022-08-26T02:56:23.803Z,99540.13
2022-08-26T02:58:52.102Z,99547.44
2022-08-26T03:01:24.125Z,99546.59
2022-08-26T03:03:52.347Z,99551.81
2022-08-26T03:06:20.488Z,99544.00
2022-08-26T03:08:48.978Z,99555.41
2022-08-26T03:11:19.191Z,99544.34
2022-08-26T03:13:47.566Z,99539.28
2022-08-26T03:16:16.121Z,99535.38
2022-08-26T03:18:44.414Z,99536.69
2022-08-26T03:21:21.164Z,99548.34
2022-08-26T03:23:49.724Z,99536.00
2022-08-26T03:26:19.597Z,99536.00
2022-08-26T03:29:05.385Z,99542.34
2022-08-26T03:31:33.577Z,99539.66
2022-08-26T03:34:01.824Z,99536.00
2022-08-26T03:36:30.157Z,99538.00
2022-08-26T03:38:58.660Z,99531.66
2022-08-26T03:41:28.261Z,99536.53
2022-08-26T03:43:59.668Z,99532.19
2022-08-26T03:46:29.799Z,99530.03
2022-08-26T03:48:58.164Z,99533.41
2022-08-26T03:51:27.480Z,99529.72
2022-08-26T03:53:56.110Z,99535.97
2022-08-26T03:56:25.286Z,99530.16
2022-08-26T03:58:55.635Z,99529.88
2022-08-26T04:01:24.485Z,99528.19
2022-08-26T04:04:01.539Z,99531.53
2022-08-26T04:06:33.254Z,99522.38
2022-08-26T04:09:04.306Z,99530.25
2022-08-26T04:11:34.236Z,99527.94
2022-08-26T04:14:07.960Z,99525.66
2022-08-26T04:16:37.099Z,99528.84
2022-08-26T04:19:09.414Z,99518.38
2022-08-26T04:21:38.395Z,99535.69
2022-08-26T04:24:11.373Z,99528.41
2022-08-26T04:26:42.845Z,99530.22
2022-08-26T04:29:15.337Z,99528.81
2022-08-26T04:31:43.912Z,99532.34
2022-08-26T04:34:14.170Z,99517.63
2022-08-26T04:36:43.620Z,99532.41
2022-08-26T04:39:16.650Z,99532.78
2022-08-26T04:41:47.217Z,99522.22
2022-08-26T04:44:18.811Z,99522.19
2022-08-26T04:46:46.967Z,99517.97
2022-08-26T04:49:15.524Z,99527.66
2022-08-26T04:51:43.856Z,99524.16
2022-08-26T04:54:12.130Z,99526.34
2022-08-26T04:56:42.772Z,99524.63
2022-08-26T04:59:17.194Z,99524.09
2022-08-26T05:01:50.413Z,99525.53
2022-08-26T05:04:19.927Z,99522.50
2022-08-26T05:06:48.564Z,99523.16
2022-08-26T05:09:18.637Z,99508.13
2022-08-26T05:11:48.439Z,99518.75
2022-08-26T05:14:20.889Z,99514.44
2022-08-26T05:16:50.476Z,99516.63
2022-08-26T05:19:18.824Z,99512.03
2022-08-26T05:21:47.951Z,99515.00
2022-08-26T05:24:16.695Z,99510.47
2022-08-26T05:26:45.404Z,99523.91
2022-08-26T05:29:14.180Z,99521.47
2022-08-26T05:31:43.273Z,99514.28
2022-08-26T05:34:12.781Z,99519.69
2022-08-26T05:36:41.459Z,99514.50
2022-08-26T05:39:10.859Z,99512.06
2022-08-26T05:41:41.834Z,99516.75
2022-08-26T05:44:14.016Z,99528.25
2022-08-26T05:46:44.896Z,99523.03
2022-08-26T05:49:17.639Z,99520.41
2022-08-26T05:51:47.696Z,99518.94
2022-08-26T05:54:21.758Z,99525.41
2022-08-26T05:56:50.539Z,99523.66
2022-08-26T05:59:24.365Z,99529.41
2022-08-26T06:01:53.383Z,99529.28
2022-08-26T06:04:24.801Z,99528.31
2022-08-26T06:06:57.020Z,99518.28
2022-08-26T06:09:25.492Z,99524.34
2022-08-26T06:11:53.700Z,99530.66
2022-08-26T06:14:21.878Z,99532.03
2022-08-26T06:16:50.580Z,99530.97
2022-08-26T06:19:19.396Z,99539.97
2022-08-26T06:21:53.957Z,99535.31
2022-08-26T06:24:40.683Z,99520.41
2022-08-26T06:27:11.339Z,99544.75
2022-08-26T06:29:40.571Z,99540.78
2022-08-26T06:32:09.016Z,99545.28
2022-08-26T06:34:37.913Z,99542.13
2022-08-26T06:37:07.480Z,99540.16
2022-08-26T06:39:35.720Z,99540.06
2022-08-26T06:42:11.996Z,99541.53
2022-08-26T06:44:41.043Z,99537.28
2022-08-26T06:47:09.457Z,99545.50
2022-08-26T06:49:37.571Z,99548.66
2022-08-26T06:52:07.416Z,99545.75
2022-08-26T06:54:37.208Z,99538.03
2022-08-26T06:57:07.712Z,99537.38
2022-08-26T06:59:35.867Z,99541.59
2022-08-26T07:02:06.283Z,99538.25
2022-08-26T07:04:36.300Z,99550.88
2022-08-26T07:07:04.432Z,99540.78
2022-08-26T07:09:35.505Z,99536.94
2022-08-26T07:12:06.852Z,99538.84
2022-08-26T07:14:35.805Z,99544.56
2022-08-26T07:17:03.925Z,99537.09
2022-08-26T07:19:32.062Z,99548.63
2022-08-26T07:22:01.987Z,99543.59
2022-08-26T07:24:31.228Z,99549.28
2022-08-26T07:27:03.167Z,99536.53
2022-08-26T07:29:34.267Z,99538.75
2022-08-26T07:32:02.615Z,99539.88
2022-08-26T07:34:32.294Z,99530.22
2022-08-26T07:37:02.038Z,99525.34
2022-08-26T07:39:31.871Z,99535.09
2022-08-26T07:42:07.555Z,99541.13
2022-08-26T07:44:37.043Z,99537.88
2022-08-26T07:47:10.508Z,99529.00
2022-08-26T07:49:54.248Z,99540.69
2022-08-26T07:52:26.362Z,99542.69
2022-08-26T07:54:55.605Z,99532.47
2022-08-26T07:57:25.176Z,99535.06
2022-08-26T07:59:55.111Z,99537.69
2022-08-26T08:02:26.772Z,99534.38
2022-08-26T08:04:55.337Z,99533.44
2022-08-26T08:07:25.773Z,99535.88
2022-08-26T08:10:14.692Z,99523.94
2022-08-26T08:12:44.593Z,99529.19
2022-08-26T08:15:14.527Z,99527.47
2022-08-26T08:17:43.936Z,99526.53
2022-08-26T08:20:14.442Z,99533.00
2022-08-26T08:22:42.653Z,99536.28
2022-08-26T08:25:12.518Z,99527.88
2022-08-26T08:27:45.232Z,99522.66
2022-08-26T08:30:14.707Z,99515.81
2022-08-26T08:32:49.317Z,99524.22
2022-08-26T08:35:21.285Z,99526.44
2022-08-26T08:37:52.293Z,99521.84
2022-08-26T08:40:20.852Z,99520.44
2022-08-26T08:42:55.903Z,99514.66
2022-08-26T08:45:35.892Z,99512.94
2022-08-26T08:48:08.257Z,99515.72
2022-08-26T08:50:44.763Z,99518.53
2022-08-26T08:53:17.386Z,99507.53
2022-08-26T08:55:59.657Z,99514.06
2022-08-26T08:58:41.350Z,99500.91
2022-08-26T09:01:22.649Z,99510.53
2022-08-26T09:04:05.944Z,99506.63
2022-08-26T09:06:34.108Z,99505.41
2022-08-26T09:09:04.193Z,99499.09
2022-08-26T09:11:32.367Z,99489.13
2022-08-26T09:14:02.016Z,99498.25
2022-08-26T09:16:42.687Z,99497.63
2022-08-26T09:19:22.071Z,99492.78
2022-08-26T09:21:56.917Z,99481.31
2022-08-26T09:24:28.367Z,99492.66
2022-08-26T09:26:59.325Z,99482.75
2022-08-26T09:29:30.983Z,99485.25
2022-08-26T09:32:19.606Z,99480.84
2022-08-26T09:34:58.226Z,99479.91
2022-08-26T09:37:41.416Z,99481.72
2022-08-26T09:40:17.383Z,99474.22
2022-08-26T09:42:45.909Z,99474.94
2022-08-26T09:45:29.447Z,99477.16
2022-08-26T09:48:01.320Z,99477.56
2022-08-26T09:50:32.143Z,99474.38
2022-08-26T09:53:17.323Z,99480.16
2022-08-26T09:55:52.421Z,99474.84
2022-08-26T09:58:34.997Z,99479.38
2022-08-26T10:01:09.614Z,99468.59
2022-08-26T10:03:40.803Z,99470.59
2022-08-26T10:06:24.150Z,99466.56
2022-08-26T10:08:55.960Z,99459.44
2022-08-26T10:11:27.529Z,99461.53
2022-08-26T10:13:59.436Z,99460.97
2022-08-26T10:16:36.773Z,99460.59
2022-08-26T10:19:09.528Z,99460.03
2022-08-26T10:21:44.118Z,99457.69
2022-08-26T10:24:19.514Z,99452.31
2022-08-26T10:27:03.907Z,99456.56
2022-08-26T10:29:38.973Z,99456.50
2022-08-26T10:32:15.378Z,99457.53
2022-08-26T10:34:45.092Z,99453.09
2022-08-26T10:37:17.062Z,99444.69
2022-08-26T10:39:58.635Z,99455.78
2022-08-26T10:42:33.275Z,99444.91
2022-08-26T10:45:07.623Z,99443.72
2022-08-26T10:47:48.431Z,99434.28
2022-08-26T10:50:18.160Z,99433.41
2022-08-26T10:53:04.525Z,99427.19
2022-08-26T10:55:37.508Z,99433.41
2022-08-26T10:58:26.310Z,99429.00
2022-08-26T11:01:22.633Z,99427.94
2022-08-26T11:04:00.487Z,99421.13
2022-08-26T11:06:31.510Z,99416.09
2022-08-26T11:09:01.794Z,99414.28
2022-08-26T11:11:46.802Z,99415.19
2022-08-26T11:14:53.060Z,99419.16
2022-08-26T11:17:56.687Z,99414.28
2022-08-26T11:20:41.596Z,99415.94
2022-08-26T11:23:50.545Z,99412.97
2022-08-26T11:26:37.525Z,99405.19
2022-08-26T11:29:12.352Z,99399.41
2022-08-26T11:31:56.237Z,99396.75
2022-08-26T11:34:57.169Z,99388.16
2022-08-26T11:37:30.989Z,99400.56
2022-08-26T11:40:03.141Z,99398.66
2022-08-26T11:42:37.708Z,99395.59
2022-08-26T11:45:18.609Z,99395.13
2022-08-26T11:47:49.419Z,99383.72
2022-08-26T11:50:20.579Z,99377.88
2022-08-26T11:52:55.759Z,99381.75
2022-08-26T11:55:24.789Z,99382.13
2022-08-26T11:57:55.622Z,99373.81
2022-08-26T12:00:33.464Z,99371.41
2022-08-26T12:03:06.325Z,99373.78
2022-08-26T12:05:39.588Z,99372.06
2022-08-26T12:08:13.396Z,99362.06
2022-08-26T12:10:41.810Z,99361.75
2022-08-26T12:13:21.620Z,99353.78
2022-08-26T12:15:56.013Z,99353.03
2022-08-26T12:18:29.371Z,99348.94
2022-08-26T12:21:00.921Z,99336.78
2022-08-26T12:23:41.367Z,99345.03
2022-08-26T12:26:13.158Z,99342.41
2022-08-26T12:28:46.704Z,99339.34
2022-08-26T12:31:22.660Z,99337.22
2022-08-26T12:33:51.250Z,99330.41
2022-08-26T12:36:27.601Z,99337.75
2022-08-26T12:38:58.736Z,99334.44
2022-08-26T12:41:42.407Z,99329.78
2022-08-26T12:44:31.025Z,99330.09
2022-08-26T12:47:04.008Z,99323.81
2022-08-26T12:49:32.375Z,99324.31
2022-08-26T12:52:00.541Z,99321.78
2022-08-26T12:54:52.441Z,99316.72
2022-08-26T12:57:29.249Z,99314.38
2022-08-26T13:00:28.524Z,99319.06
2022-08-26T13:02:56.963Z,99303.56
2022-08-26T13:05:28.860Z,99309.34
2022-08-26T13:08:14.880Z,99296.59
2022-08-26T13:10:46.454Z,99293.69
2022-08-26T13:13:16.450Z,99298.19
2022-08-26T13:15:44.887Z,99292.09
2022-08-26T13:18:13.014Z,99284.91
2022-08-26T13:20:45.020Z,99277.59
2022-08-26T13:23:13.523Z,99280.41
2022-08-26T13:25:42.134Z,99278.03
2022-08-26T13:28:11.678Z,99276.25
2022-08-26T13:30:49.921Z,99274.53
2022-08-26T13:33:19.557Z,99271.59
2022-08-26T13:35:48.559Z,99277.72
